Time;durP1;ratioP1;P1;durP2;ratioP2;P2;SDS_P1;SDS_P2;PMS_P1;PMS_P2;Temp;Humidity;BMP_temperature;BMP_pressure;BME280_temperature;BME280_humidity;BME280_pressure;Samples;Min_cycle;Max_cycle;Signal;HPM_P1;HPM_P2
2023/09/29 00:00:31;;;;;;;8.45;3.60;;;17.60;99.90;;;;;;4844049;29;20194;-60
2023/09/29 00:02:57;;;;;;;7.72;3.30;;;17.60;99.90;;;;;;4843812;29;20551;-59
2023/09/29 00:05:23;;;;;;;11.82;4.00;;;17.60;99.90;;;;;;4843822;29;20239;-60
2023/09/29 00:07:51;;;;;;;8.80;3.50;;;17.60;99.90;;;;;;4843448;29;20240;-60
2023/09/29 00:10:17;;;;;;;7.85;3.83;;;17.60;99.90;;;;;;4843772;29;20269;-61
2023/09/29 00:12:44;;;;;;;11.48;3.88;;;17.60;99.90;;;;;;4843657;29;20201;-60
2023/09/29 00:15:10;;;;;;;8.35;3.47;;;17.60;99.90;;;;;;4843585;29;20193;-61
2023/09/29 00:17:37;;;;;;;8.15;3.53;;;17.60;99.90;;;;;;4843680;29;20175;-61
2023/09/29 00:20:12;;;;;;;10.60;3.60;;;17.60;99.90;;;;;;4843654;29;20211;-61
2023/09/29 00:22:38;;;;;;;12.57;4.05;;;17.60;99.90;;;;;;4843234;29;20572;-61
2023/09/29 00:25:08;;;;;;;9.48;3.88;;;17.60;99.90;;;;;;4843419;29;20183;-61
2023/09/29 00:27:33;;;;;;;8.05;3.60;;;17.60;99.90;;;;;;4843414;29;20195;-63
2023/09/29 00:29:59;;;;;;;9.27;3.03;;;17.50;99.90;;;;;;4843347;29;20191;-61
2023/09/29 00:32:25;;;;;;;8.95;3.90;;;17.60;99.90;;;;;;4843553;29;20310;-61
2023/09/29 00:34:50;;;;;;;10.30;3.80;;;17.60;99.90;;;;;;4843263;29;20206;-61
2023/09/29 00:37:16;;;;;;;10.73;3.50;;;17.60;99.90;;;;;;4843042;29;20222;-61
2023/09/29 00:39:42;;;;;;;10.60;3.80;;;17.70;99.90;;;;;;4843244;29;20191;-61
2023/09/29 00:42:08;;;;;;;9.13;3.90;;;17.70;99.90;;;;;;4842992;29;20198;-61
2023/09/29 00:44:34;;;;;;;13.38;3.97;;;17.70;99.90;;;;;;4842574;29;20285;-60
2023/09/29 00:47:01;;;;;;;9.73;3.75;;;17.70;99.90;;;;;;4843061;29;20186;-61
2023/09/29 00:49:29;;;;;;;6.97;3.10;;;17.70;99.90;;;;;;4842835;29;20190;-60
2023/09/29 00:52:00;;;;;;;9.27;3.50;;;17.70;99.90;;;;;;4843116;29;20167;-61
2023/09/29 00:54:32;;;;;;;10.93;3.90;;;17.70;99.90;;;;;;4826827;29;20640;-61
2023/09/29 00:56:59;;;;;;;10.18;3.20;;;17.70;99.90;;;;;;4842759;29;20692;-60
2023/09/29 00:59:27;;;;;;;9.20;3.45;;;17.70;99.90;;;;;;4842854;29;20183;-60
2023/09/29 01:01:52;;;;;;;6.97;3.17;;;17.70;99.90;;;;;;4842761;29;20187;-60
2023/09/29 01:04:18;;;;;;;7.97;3.45;;;17.70;99.90;;;;;;4842546;29;20718;-60
2023/09/29 01:06:45;;;;;;;10.77;3.50;;;17.70;99.90;;;;;;4842761;29;20526;-60
2023/09/29 01:09:12;;;;;;;8.25;3.30;;;17.70;99.90;;;;;;4842861;29;20209;-61
2023/09/29 01:11:44;;;;;;;9.45;3.15;;;17.70;99.90;;;;;;4842602;29;20593;-61
2023/09/29 01:14:14;;;;;;;9.55;3.45;;;17.70;99.90;;;;;;4842717;29;20186;-60
2023/09/29 01:16:41;;;;;;;7.35;3.10;;;17.70;99.90;;;;;;4842564;29;20316;-61
2023/09/29 01:19:13;;;;;;;8.88;3.20;;;17.70;99.90;;;;;;4842529;29;20192;-61
2023/09/29 01:21:45;;;;;;;8.95;3.20;;;17.70;99.90;;;;;;4842614;29;20187;-60
2023/09/29 01:24:11;;;;;;;5.93;3.03;;;17.70;99.90;;;;;;4842665;29;20210;-60
2023/09/29 01:26:38;;;;;;;6.43;2.67;;;17.70;99.90;;;;;;4842573;29;20183;-60
2023/09/29 01:29:03;;;;;;;7.20;2.63;;;17.70;99.90;;;;;;4842482;29;20213;-60
2023/09/29 01:31:31;;;;;;;8.25;3.20;;;17.70;99.90;;;;;;4842490;29;20799;-60
2023/09/29 01:33:57;;;;;;;8.65;2.90;;;17.70;99.90;;;;;;4842665;29;20222;-61
2023/09/29 01:36:24;;;;;;;6.45;2.92;;;17.80;99.90;;;;;;4842447;29;20246;-61
2023/09/29 01:38:49;;;;;;;6.93;3.15;;;17.80;99.90;;;;;;4842685;29;20178;-60
2023/09/29 01:41:15;;;;;;;7.60;3.13;;;17.90;99.90;;;;;;4842378;29;20603;-60
2023/09/29 01:43:41;;;;;;;7.60;3.47;;;17.90;99.90;;;;;;4842667;29;20180;-60
2023/09/29 01:46:09;;;;;;;5.38;2.97;;;17.90;99.90;;;;;;4853703;29;20190;-60
2023/09/29 01:48:35;;;;;;;6.70;3.20;;;18.00;99.90;;;;;;4860917;29;20181;-61
2023/09/29 01:51:03;;;;;;;6.57;3.00;;;18.00;99.90;;;;;;4860826;29;20183;-60
2023/09/29 01:53:32;;;;;;;6.60;3.25;;;18.00;99.90;;;;;;4860826;29;20227;-60
2023/09/29 01:55:58;;;;;;;5.40;2.88;;;18.00;99.90;;;;;;4860998;29;20206;-60
2023/09/29 01:58:24;;;;;;;5.93;2.75;;;18.00;99.90;;;;;;4864338;29;20178;-61
2023/09/29 02:00:50;;;;;;;8.93;2.88;;;18.00;99.90;;;;;;4864222;29;20749;-61
2023/09/29 02:03:16;;;;;;;4.97;2.88;;;18.00;99.90;;;;;;4864798;29;20230;-61
2023/09/29 02:05:43;;;;;;;6.88;3.00;;;18.00;99.90;;;;;;4864125;29;20603;-60
2023/09/29 02:08:10;;;;;;;5.90;2.80;;;18.10;99.90;;;;;;4864169;29;20273;-60
2023/09/29 02:10:36;;;;;;;5.70;3.00;;;18.10;99.90;;;;;;4864184;29;20648;-60
2023/09/29 02:13:07;;;;;;;6.22;2.70;;;18.10;99.90;;;;;;4863963;29;20178;-60
2023/09/29 02:15:34;;;;;;;7.00;2.95;;;18.10;99.90;;;;;;4864106;29;20225;-59
2023/09/29 02:18:06;;;;;;;7.85;3.30;;;18.10;99.90;;;;;;4864109;29;20245;-60
2023/09/29 02:20:32;;;;;;;7.15;2.80;;;18.20;99.90;;;;;;4864064;29;20182;-60
2023/09/29 02:22:59;;;;;;;6.63;3.15;;;18.20;99.90;;;;;;4864147;29;20199;-59
2023/09/29 02:25:28;;;;;;;4.35;2.50;;;18.20;99.90;;;;;;4863841;29;20193;-60
2023/09/29 02:27:56;;;;;;;6.13;2.53;;;18.20;99.90;;;;;;4863661;29;20182;-60
2023/09/29 02:30:24;;;;;;;5.30;2.60;;;18.30;99.90;;;;;;4863896;29;20174;-60
2023/09/29 02:32:53;;;;;;;4.03;2.60;;;18.20;99.90;;;;;;4863869;29;20186;-60
2023/09/29 02:35:19;;;;;;;7.50;2.80;;;18.30;99.90;;;;;;4863626;29;20209;-60
2023/09/29 02:37:46;;;;;;;5.05;2.70;;;18.30;99.90;;;;;;4863662;29;20262;-60
2023/09/29 02:40:12;;;;;;;7.13;2.97;;;18.30;99.90;;;;;;4863433;29;20640;-60
2023/09/29 02:42:38;;;;;;;6.68;2.28;;;18.30;99.90;;;;;;4863897;29;20178;-60
2023/09/29 02:45:05;;;;;;;6.18;2.78;;;18.30;99.90;;;;;;4863655;29;20229;-61
2023/09/29 02:47:31;;;;;;;5.03;2.03;;;18.30;99.90;;;;;;4863577;29;20190;-60
2023/09/29 02:49:57;;;;;;;7.07;2.65;;;18.30;99.90;;;;;;4863549;29;20185;-60
2023/09/29 02:52:24;;;;;;;4.18;2.60;;;18.30;99.90;;;;;;4863511;29;20659;-60
2023/09/29 02:54:50;;;;;;;5.43;2.50;;;18.30;99.90;;;;;;4863376;29;20225;-60
2023/09/29 02:57:16;;;;;;;6.45;2.42;;;18.40;99.90;;;;;;4863204;29;20670;-62
2023/09/29 02:59:44;;;;;;;5.85;2.00;;;18.40;99.90;;;;;;4863432;29;20197;-60
2023/09/29 03:02:10;;;;;;;5.40;2.47;;;18.40;99.90;;;;;;4863264;29;20190;-60
2023/09/29 03:04:39;;;;;;;5.95;2.40;;;18.40;99.90;;;;;;4863049;29;20651;-60
2023/09/29 03:07:04;;;;;;;5.18;2.35;;;18.40;99.90;;;;;;4862686;29;20285;-60
2023/09/29 03:09:31;;;;;;;6.75;2.65;;;18.40;99.90;;;;;;4862990;29;20218;-61
2023/09/29 03:11:59;;;;;;;5.18;2.50;;;18.40;99.90;;;;;;4863231;29;20269;-60
2023/09/29 03:14:24;;;;;;;5.72;2.35;;;18.40;99.90;;;;;;4863132;29;20197;-60
2023/09/29 03:16:50;;;;;;;5.45;2.50;;;18.40;99.90;;;;;;4862972;29;20222;-60
2023/09/29 03:19:17;;;;;;;7.25;2.25;;;18.40;99.90;;;;;;4862998;29;20178;-60
2023/09/29 03:21:42;;;;;;;4.05;2.30;;;18.40;99.90;;;;;;4862797;29;20221;-61
2023/09/29 03:24:09;;;;;;;6.82;2.30;;;18.40;99.90;;;;;;4862778;29;20222;-59
2023/09/29 03:26:35;;;;;;;4.03;2.20;;;18.40;99.90;;;;;;4863014;29;20190;-60
2023/09/29 03:29:01;;;;;;;4.78;2.60;;;18.30;99.90;;;;;;4863077;29;20190;-60
2023/09/29 03:31:27;;;;;;;5.00;2.10;;;18.40;99.90;;;;;;4862780;29;20518;-60
2023/09/29 03:33:52;;;;;;;3.75;2.47;;;18.40;99.90;;;;;;4862704;29;20189;-60
2023/09/29 03:36:21;;;;;;;3.60;2.05;;;18.40;99.90;;;;;;4862551;29;20687;-60
2023/09/29 03:38:47;;;;;;;4.80;2.58;;;18.40;99.90;;;;;;4862591;29;20186;-60
2023/09/29 03:41:13;;;;;;;6.55;2.50;;;18.40;99.90;;;;;;4862762;29;20234;-60
2023/09/29 03:43:40;;;;;;;6.40;2.40;;;18.50;99.90;;;;;;4862695;29;20178;-60
2023/09/29 03:46:06;;;;;;;6.00;2.53;;;18.50;99.90;;;;;;4862510;29;20186;-60
2023/09/29 03:48:32;;;;;;;4.78;2.20;;;18.60;99.90;;;;;;4862428;29;20253;-59
2023/09/29 03:50:58;;;;;;;4.55;2.22;;;18.60;99.90;;;;;;4862412;29;20214;-59
2023/09/29 03:53:28;;;;;;;6.95;2.72;;;18.60;99.90;;;;;;4862275;29;20175;-60
2023/09/29 03:55:54;;;;;;;3.80;2.40;;;18.60;99.90;;;;;;4862427;29;20212;-60
2023/09/29 03:58:20;;;;;;;6.65;2.20;;;18.60;99.90;;;;;;4862458;29;20229;-60
2023/09/29 04:00:46;;;;;;;4.88;2.10;;;18.70;99.90;;;;;;4862260;29;20249;-60
2023/09/29 04:03:12;;;;;;;5.03;2.25;;;18.70;99.90;;;;;;4862204;29;20706;-60
2023/09/29 04:05:38;;;;;;;6.60;2.55;;;18.70;99.90;;;;;;4861904;29;20302;-60
2023/09/29 04:08:04;;;;;;;4.95;2.05;;;18.70;99.90;;;;;;4862325;29;20254;-61
2023/09/29 04:10:29;;;;;;;3.90;2.20;;;18.70;99.90;;;;;;4862068;29;20272;-60
2023/09/29 04:12:55;;;;;;;4.30;2.35;;;18.70;99.90;;;;;;4862100;29;20185;-60
2023/09/29 04:15:21;;;;;;;5.20;2.08;;;18.70;99.90;;;;;;4861985;29;20217;-60
2023/09/29 04:17:46;;;;;;;3.63;2.08;;;18.80;99.90;;;;;;4845442;29;20182;-60
2023/09/29 04:20:13;;;;;;;6.72;2.60;;;18.70;99.90;;;;;;4861097;29;20182;-60
2023/09/29 04:22:38;;;;;;;3.90;2.33;;;18.80;99.90;;;;;;4862000;29;20217;-61
2023/09/29 04:25:09;;;;;;;5.18;2.22;;;18.80;99.90;;;;;;4861779;29;20253;-60
2023/09/29 04:27:35;;;;;;;4.43;2.17;;;18.80;99.90;;;;;;4861561;29;20178;-60
2023/09/29 04:30:04;;;;;;;3.70;2.10;;;18.80;99.90;;;;;;4844665;29;20178;-60
2023/09/29 04:32:30;;;;;;;4.03;2.20;;;18.80;99.90;;;;;;4861752;29;20182;-60
2023/09/29 04:34:55;;;;;;;3.90;2.10;;;18.80;99.90;;;;;;4861488;29;20648;-61
2023/09/29 04:37:21;;;;;;;3.65;2.10;;;18.90;99.90;;;;;;4861696;29;20699;-59
2023/09/29 04:39:46;;;;;;;6.70;2.85;;;18.90;99.90;;;;;;4833960;29;20191;-60
2023/09/29 04:42:13;;;;;;;5.50;2.53;;;18.90;99.90;;;;;;4824733;29;20248;-60
2023/09/29 04:44:38;;;;;;;3.38;2.35;;;18.90;99.90;;;;;;4824511;29;20522;-60
2023/09/29 04:47:05;;;;;;;4.15;2.28;;;18.90;99.90;;;;;;4825011;29;20220;-60
2023/09/29 04:49:31;;;;;;;2.88;1.95;;;18.90;99.90;;;;;;4824901;29;20254;-61
2023/09/29 04:51:57;;;;;;;3.78;2.42;;;19.00;99.90;;;;;;4825038;29;20537;-61
2023/09/29 04:54:22;;;;;;;4.22;2.30;;;18.90;99.90;;;;;;4825031;29;20183;-60
2023/09/29 04:56:48;;;;;;;2.85;2.03;;;18.90;99.90;;;;;;4824796;29;20218;-60
2023/09/29 04:59:14;;;;;;;3.08;1.85;;;18.90;99.90;;;;;;4824778;29;20198;-61
2023/09/29 05:01:39;;;;;;;4.18;2.10;;;19.00;99.90;;;;;;4824728;29;20180;-65
2023/09/29 05:04:05;;;;;;;2.63;2.17;;;18.90;99.90;;;;;;4824646;29;20547;-65
2023/09/29 05:06:31;;;;;;;7.78;2.20;;;18.90;99.90;;;;;;4824720;29;20230;-67
2023/09/29 05:08:56;;;;;;;3.92;2.20;;;18.90;99.90;;;;;;4824811;29;20545;-65
2023/09/29 05:11:27;;;;;;;7.35;2.60;;;19.00;99.90;;;;;;4824809;29;20226;-65
2023/09/29 05:13:54;;;;;;;13.93;3.33;;;18.90;99.90;;;;;;4824772;29;20203;-65
2023/09/29 05:16:20;;;;;;;5.95;2.28;;;18.90;99.90;;;;;;4824489;29;20242;-65
2023/09/29 05:18:48;;;;;;;2.95;2.05;;;18.90;99.90;;;;;;4824504;29;20601;-65
2023/09/29 05:21:14;;;;;;;6.05;2.40;;;18.90;99.90;;;;;;4824591;29;20262;-65
2023/09/29 05:23:41;;;;;;;3.67;2.20;;;18.90;99.90;;;;;;4824513;29;20183;-65
2023/09/29 05:26:07;;;;;;;5.47;2.20;;;18.80;99.90;;;;;;4824593;29;20184;-65
2023/09/29 05:28:34;;;;;;;4.80;2.20;;;18.80;99.90;;;;;;4824597;29;20285;-64
2023/09/29 05:31:00;;;;;;;3.42;2.25;;;18.80;99.90;;;;;;4826290;29;20191;-65
2023/09/29 05:33:26;;;;;;;5.18;2.10;;;18.70;99.90;;;;;;4811553;29;20194;-65
2023/09/29 05:35:52;;;;;;;4.63;2.00;;;18.80;99.90;;;;;;4828014;29;20207;-66
2023/09/29 05:38:18;;;;;;;3.05;2.15;;;18.80;99.90;;;;;;4827900;29;20510;-65
2023/09/29 05:40:47;;;;;;;3.67;2.00;;;18.80;99.90;;;;;;4828066;29;20175;-62
2023/09/29 05:43:13;;;;;;;4.28;2.30;;;18.80;99.90;;;;;;4827707;29;20605;-65
2023/09/29 05:45:39;;;;;;;3.30;2.30;;;18.90;99.90;;;;;;4827837;29;20194;-65
2023/09/29 05:48:08;;;;;;;3.83;2.50;;;19.00;99.90;;;;;;4827718;29;20201;-65
2023/09/29 05:50:35;;;;;;;4.32;2.45;;;19.00;99.90;;;;;;4827863;29;20171;-64
2023/09/29 05:53:02;;;;;;;4.85;2.13;;;18.90;99.90;;;;;;4827834;29;20183;-65
2023/09/29 05:55:27;;;;;;;5.05;2.50;;;19.00;99.90;;;;;;4827705;29;20230;-65
2023/09/29 05:57:53;;;;;;;3.33;1.92;;;19.00;99.90;;;;;;4827507;29;20641;-64
2023/09/29 06:00:19;;;;;;;4.00;2.70;;;19.00;99.90;;;;;;4827450;29;20187;-64
2023/09/29 06:02:46;;;;;;;4.82;2.60;;;18.90;99.90;;;;;;4827858;29;20176;-65
2023/09/29 06:05:12;;;;;;;2.95;2.20;;;18.90;99.90;;;;;;4827214;29;20700;-65
2023/09/29 06:07:39;;;;;;;4.75;2.38;;;18.90;99.90;;;;;;4827506;29;20183;-65
2023/09/29 06:10:06;;;;;;;6.70;2.40;;;19.00;99.90;;;;;;4827468;29;20190;-66
2023/09/29 06:12:32;;;;;;;4.75;2.70;;;19.10;99.90;;;;;;4827224;29;20211;-62
2023/09/29 06:14:58;;;;;;;4.65;2.28;;;19.10;99.90;;;;;;4827080;29;20676;-65
2023/09/29 06:17:24;;;;;;;4.72;2.75;;;19.00;99.90;;;;;;4827311;29;20250;-65
2023/09/29 06:19:50;;;;;;;3.67;2.60;;;19.00;99.90;;;;;;4827249;29;20230;-65
2023/09/29 06:22:16;;;;;;;5.47;2.70;;;19.10;99.90;;;;;;4827271;29;20191;-65
2023/09/29 06:24:43;;;;;;;5.47;2.53;;;19.20;99.90;;;;;;4827297;29;20551;-66
2023/09/29 06:27:10;;;;;;;3.30;2.20;;;19.20;99.90;;;;;;4827107;29;20586;-65
2023/09/29 06:29:36;;;;;;;5.43;2.63;;;19.20;99.90;;;;;;4827004;29;20207;-65
2023/09/29 06:32:01;;;;;;;5.82;2.70;;;19.10;99.90;;;;;;4826897;29;20211;-64
2023/09/29 06:34:27;;;;;;;2.90;2.60;;;19.20;99.90;;;;;;4827091;29;20243;-64
2023/09/29 06:36:53;;;;;;;7.75;3.08;;;19.20;99.90;;;;;;4827010;29;20218;-64
2023/09/29 06:39:19;;;;;;;6.28;2.83;;;19.20;99.90;;;;;;4827027;29;20642;-65
2023/09/29 06:41:44;;;;;;;5.00;2.67;;;19.30;99.90;;;;;;4826045;29;20183;-64
2023/09/29 06:44:10;;;;;;;4.30;2.60;;;19.30;99.90;;;;;;4826707;29;20187;-65
2023/09/29 06:46:36;;;;;;;5.45;2.30;;;19.30;99.90;;;;;;4826654;29;20567;-65
2023/09/29 06:49:01;;;;;;;4.68;2.40;;;19.30;99.90;;;;;;4826834;29;20283;-65
2023/09/29 06:51:27;;;;;;;4.03;2.40;;;19.30;99.90;;;;;;4826918;29;20188;-65
2023/09/29 06:53:53;;;;;;;5.22;2.72;;;19.30;99.90;;;;;;4826676;29;20306;-66
2023/09/29 06:56:18;;;;;;;4.18;2.40;;;19.40;99.90;;;;;;4826464;29;20215;-67
2023/09/29 06:58:46;;;;;;;2.75;2.15;;;19.40;99.90;;;;;;4826640;29;20183;-63
2023/09/29 07:01:12;;;;;;;4.50;2.53;;;19.40;99.90;;;;;;4826429;29;20584;-64
2023/09/29 07:03:38;;;;;;;4.05;2.60;;;19.40;99.90;;;;;;4826365;29;20596;-62
2023/09/29 07:06:04;;;;;;;3.47;2.40;;;19.40;99.90;;;;;;4826001;29;20317;-64
2023/09/29 07:08:30;;;;;;;6.30;2.75;;;19.30;99.90;;;;;;4826174;29;20729;-64
2023/09/29 07:10:56;;;;;;;6.25;2.60;;;19.40;99.90;;;;;;4826016;29;20219;-62
2023/09/29 07:13:22;;;;;;;6.60;2.75;;;19.50;99.90;;;;;;4826015;29;20183;-64
2023/09/29 07:15:48;;;;;;;4.60;2.45;;;19.50;99.90;;;;;;4826093;29;20672;-64
2023/09/29 07:18:16;;;;;;;4.60;2.45;;;19.50;99.90;;;;;;4826089;29;20744;-64
2023/09/29 07:20:42;;;;;;;10.38;2.90;;;19.50;99.90;;;;;;4825928;29;20188;-64
2023/09/29 07:23:11;;;;;;;4.88;2.30;;;19.50;99.90;;;;;;4825877;29;20229;-63
2023/09/29 07:25:37;;;;;;;5.88;2.70;;;19.60;99.90;;;;;;4825849;29;20183;-65
2023/09/29 07:28:13;;;;;;;4.53;2.42;;;19.60;99.90;;;;;;4825732;29;20267;-67
2023/09/29 07:30:40;;;;;;;4.38;2.60;;;19.70;99.90;;;;;;4826079;29;20640;-65
2023/09/29 07:33:06;;;;;;;8.02;2.90;;;19.70;99.90;;;;;;4825758;29;20179;-65
2023/09/29 07:35:31;;;;;;;6.57;3.00;;;19.70;99.90;;;;;;4825872;29;20561;-65
2023/09/29 07:38:00;;;;;;;3.83;2.30;;;19.70;99.90;;;;;;4824459;29;20341;-64
2023/09/29 07:40:26;;;;;;;5.72;2.58;;;19.80;99.90;;;;;;4825677;29;20259;-64
2023/09/29 07:42:51;;;;;;;4.97;2.90;;;19.70;99.90;;;;;;4825468;29;20286;-64
2023/09/29 07:45:18;;;;;;;5.03;2.83;;;19.80;99.90;;;;;;4825762;29;20701;-64
2023/09/29 07:47:44;;;;;;;4.35;2.22;;;19.90;99.90;;;;;;4825617;29;20171;-64
2023/09/29 07:50:10;;;;;;;4.93;2.55;;;20.00;99.90;;;;;;4825605;29;20191;-64
2023/09/29 07:52:38;;;;;;;5.80;2.80;;;19.90;99.90;;;;;;4825624;29;20184;-65
2023/09/29 07:55:08;;;;;;;5.22;2.60;;;20.00;99.90;;;;;;4825356;29;20227;-65
2023/09/29 07:57:34;;;;;;;4.60;2.67;;;20.00;99.90;;;;;;4825433;29;20199;-64
2023/09/29 08:00:00;;;;;;;5.07;2.47;;;20.00;99.90;;;;;;4825446;29;20215;-65
2023/09/29 08:02:27;;;;;;;5.10;2.72;;;20.10;99.90;;;;;;4825432;29;20283;-65
2023/09/29 08:04:53;;;;;;;4.38;2.78;;;20.20;99.90;;;;;;4825151;29;20227;-65
2023/09/29 08:07:22;;;;;;;6.90;2.70;;;20.20;99.90;;;;;;4825232;29;20649;-65
2023/09/29 08:09:52;;;;;;;6.43;3.03;;;20.10;99.90;;;;;;4825115;29;20219;-64
2023/09/29 08:12:18;;;;;;;4.93;2.90;;;20.10;99.90;;;;;;4825360;29;20684;-65
2023/09/29 08:14:44;;;;;;;5.35;2.78;;;20.10;99.90;;;;;;4825581;29;20179;-63
2023/09/29 08:17:10;;;;;;;5.45;2.90;;;20.10;99.90;;;;;;4825266;29;20227;-65
2023/09/29 08:19:36;;;;;;;5.32;2.80;;;20.00;99.90;;;;;;4825233;29;20251;-65
2023/09/29 08:22:02;;;;;;;4.95;2.78;;;20.10;99.90;;;;;;4825095;29;20183;-65
2023/09/29 08:24:30;;;;;;;4.57;3.10;;;20.10;99.90;;;;;;4825017;29;20190;-65
2023/09/29 08:26:56;;;;;;;5.70;3.13;;;20.10;99.90;;;;;;4825150;29;20194;-65
2023/09/29 08:29:22;;;;;;;7.70;2.90;;;20.10;99.90;;;;;;4825061;29;20188;-64
2023/09/29 08:31:48;;;;;;;5.53;2.83;;;20.10;99.90;;;;;;4824991;29;20187;-65
2023/09/29 08:34:14;;;;;;;6.25;2.80;;;20.10;99.90;;;;;;4824903;29;20649;-65
2023/09/29 08:36:39;;;;;;;3.47;2.30;;;19.90;99.90;;;;;;4824781;29;20811;-64
2023/09/29 08:39:06;;;;;;;4.78;2.67;;;19.70;99.90;;;;;;4824693;29;20179;-66
2023/09/29 08:41:34;;;;;;;5.63;2.63;;;19.70;99.90;;;;;;4824665;29;20486;-64
2023/09/29 08:44:02;;;;;;;5.15;2.85;;;19.70;99.90;;;;;;4824737;29;20202;-64
2023/09/29 08:46:29;;;;;;;4.65;2.60;;;19.70;99.90;;;;;;4824676;29;20282;-65
2023/09/29 08:48:55;;;;;;;3.95;2.22;;;19.90;99.90;;;;;;4824679;29;20534;-64
2023/09/29 08:51:22;;;;;;;5.55;2.25;;;19.90;99.90;;;;;;4824563;29;20650;-64
2023/09/29 08:53:50;;;;;;;4.90;2.60;;;19.90;99.90;;;;;;4824532;29;20769;-66
2023/09/29 08:56:17;;;;;;;5.80;2.42;;;19.90;99.90;;;;;;4824617;29;20230;-66
2023/09/29 08:58:43;;;;;;;5.75;2.50;;;19.90;99.90;;;;;;4824607;29;20187;-64
2023/09/29 09:01:09;;;;;;;5.72;2.50;;;19.90;99.90;;;;;;4824727;29;20274;-64
2023/09/29 09:03:35;;;;;;;5.15;2.72;;;19.90;99.90;;;;;;4824443;29;20213;-66
2023/09/29 09:06:01;;;;;;;6.43;2.40;;;20.00;99.90;;;;;;4823949;29;20651;-65
2023/09/29 09:08:27;;;;;;;3.60;2.08;;;20.10;99.90;;;;;;4824374;29;20206;-66
2023/09/29 09:11:00;;;;;;;5.07;2.50;;;20.10;99.90;;;;;;4824412;29;20641;-66
2023/09/29 09:13:26;;;;;;;4.40;2.47;;;20.20;99.90;;;;;;4824264;29;20187;-65
2023/09/29 09:16:00;;;;;;;5.85;2.20;;;20.20;99.90;;;;;;4824195;29;20223;-65
2023/09/29 09:18:29;;;;;;;3.88;2.22;;;20.10;99.90;;;;;;4824230;29;20187;-66
2023/09/29 09:20:56;;;;;;;3.35;2.13;;;20.00;99.90;;;;;;4824165;29;20262;-66
2023/09/29 09:23:23;;;;;;;3.22;2.30;;;20.00;99.90;;;;;;4824605;29;20270;-64
2023/09/29 09:25:49;;;;;;;3.63;2.00;;;20.00;99.90;;;;;;4824291;29;20183;-63
2023/09/29 09:28:24;;;;;;;3.08;2.28;;;20.10;99.90;;;;;;4824358;29;20187;-64
2023/09/29 09:31:01;;;;;;;2.95;2.17;;;20.00;99.90;;;;;;4824291;29;20183;-65
2023/09/29 09:33:28;;;;;;;5.63;2.17;;;20.10;99.90;;;;;;4824011;29;20205;-65
2023/09/29 09:36:04;;;;;;;3.55;2.20;;;20.10;99.90;;;;;;4824116;29;20226;-65
2023/09/29 09:38:34;;;;;;;4.60;2.05;;;20.00;99.90;;;;;;4824101;29;20709;-65
2023/09/29 09:41:01;;;;;;;4.55;1.98;;;20.00;99.90;;;;;;4823961;29;20183;-64
2023/09/29 09:43:29;;;;;;;2.72;2.00;;;20.00;99.90;;;;;;4823992;29;20191;-66
2023/09/29 09:46:03;;;;;;;4.22;2.22;;;19.90;99.90;;;;;;4823902;29;20183;-66
2023/09/29 09:48:43;;;;;;;4.90;2.05;;;19.80;99.90;;;;;;4824157;29;20215;-67
2023/09/29 09:51:12;;;;;;;4.88;2.50;;;19.80;99.90;;;;;;4824260;29;20179;-65
2023/09/29 09:53:38;;;;;;;3.70;2.08;;;19.90;99.90;;;;;;4807871;29;20264;-66
2023/09/29 09:56:14;;;;;;;4.72;1.85;;;19.90;99.90;;;;;;4823619;29;20227;-64
2023/09/29 09:58:40;;;;;;;3.30;1.95;;;20.00;99.90;;;;;;4823979;29;20537;-65
2023/09/29 10:01:06;;;;;;;3.17;1.90;;;19.90;99.90;;;;;;4823857;29;20195;-65
2023/09/29 10:03:37;;;;;;;4.90;1.85;;;19.90;99.90;;;;;;4823885;29;20186;-64
2023/09/29 10:06:05;;;;;;;4.03;1.70;;;19.80;99.90;;;;;;4823686;29;20226;-65
2023/09/29 10:08:33;;;;;;;4.80;2.10;;;19.70;99.90;;;;;;4823793;29;20211;-65
2023/09/29 10:11:13;;;;;;;5.13;1.85;;;19.70;99.90;;;;;;4823651;29;20176;-65
2023/09/29 10:13:42;;;;;;;2.95;1.85;;;19.70;99.90;;;;;;4823960;29;20179;-65
2023/09/29 10:16:08;;;;;;;3.38;1.70;;;19.70;99.90;;;;;;4823937;29;20213;-63
2023/09/29 10:18:35;;;;;;;4.15;2.10;;;19.80;99.90;;;;;;4826235;29;20633;-65
2023/09/29 10:21:08;;;;;;;4.25;2.00;;;19.90;99.90;;;;;;4826869;29;20181;-65
2023/09/29 10:23:49;;;;;;;3.85;1.90;;;19.90;99.90;;;;;;4826829;29;20190;-65
2023/09/29 10:26:14;;;;;;;3.88;1.88;;;20.00;99.90;;;;;;4826800;29;20194;-66
2023/09/29 10:28:40;;;;;;;5.60;2.47;;;20.00;99.90;;;;;;4826824;29;20266;-66
2023/09/29 10:31:14;;;;;;;3.38;2.25;;;20.00;99.90;;;;;;4826745;29;20187;-67
2023/09/29 10:33:52;;;;;;;4.25;2.15;;;20.00;99.90;;;;;;4826789;29;20183;-65
2023/09/29 10:36:23;;;;;;;2.88;2.13;;;20.00;99.90;;;;;;4826829;29;20246;-66
2023/09/29 10:38:50;;;;;;;4.93;2.10;;;20.00;99.90;;;;;;4826774;29;20172;-65
2023/09/29 10:41:16;;;;;;;4.25;1.70;;;20.10;99.90;;;;;;4810517;29;20284;-65
2023/09/29 10:43:49;;;;;;;4.10;2.10;;;20.20;99.90;;;;;;4826651;29;20175;-65
2023/09/29 10:46:21;;;;;;;4.35;2.08;;;20.20;99.90;;;;;;4826527;29;20191;-65
2023/09/29 10:48:48;;;;;;;2.25;1.85;;;20.30;99.90;;;;;;4826751;29;20180;-65
2023/09/29 10:51:23;;;;;;;2.80;1.80;;;20.40;99.90;;;;;;4826718;29;20179;-66
2023/09/29 10:53:50;;;;;;;4.50;2.15;;;20.40;99.90;;;;;;4826495;29;20182;-65
2023/09/29 10:56:23;;;;;;;2.67;1.83;;;20.40;99.90;;;;;;4826300;29;20250;-66
2023/09/29 10:58:53;;;;;;;2.47;1.60;;;20.30;99.90;;;;;;4826243;29;20319;-65
2023/09/29 11:01:31;;;;;;;2.55;1.85;;;20.30;99.90;;;;;;4826487;29;20183;-66
2023/09/29 11:03:57;;;;;;;3.58;2.10;;;20.40;99.90;;;;;;4826393;29;20183;-65
2023/09/29 11:06:23;;;;;;;3.15;1.92;;;20.50;99.90;;;;;;4826419;29;20771;-66
2023/09/29 11:08:57;;;;;;;2.70;1.85;;;20.50;99.90;;;;;;4826518;29;20240;-65
2023/09/29 11:11:32;;;;;;;2.75;1.80;;;20.40;99.90;;;;;;4826301;29;20533;-65
2023/09/29 11:13:58;;;;;;;3.00;2.25;;;20.40;99.90;;;;;;4826529;29;20206;-65
2023/09/29 11:16:27;;;;;;;3.75;2.10;;;20.40;99.90;;;;;;4826327;29;20253;-66
2023/09/29 11:18:56;;;;;;;5.80;2.25;;;20.40;99.90;;;;;;4826274;29;20171;-67
2023/09/29 11:21:35;;;;;;;5.05;2.25;;;20.30;99.90;;;;;;4826237;29;20176;-65
2023/09/29 11:24:09;;;;;;;4.25;1.70;;;20.20;99.90;;;;;;4826133;29;20183;-65
2023/09/29 11:26:38;;;;;;;3.55;1.85;;;20.10;99.90;;;;;;4809962;29;20184;-64
2023/09/29 11:29:04;;;;;;;4.30;1.95;;;20.10;99.90;;;;;;4825822;29;20202;-65
2023/09/29 11:31:30;;;;;;;3.58;1.70;;;20.10;99.90;;;;;;4826369;29;20638;-66
2023/09/29 11:33:56;;;;;;;3.72;1.50;;;19.90;99.90;;;;;;4826039;29;20537;-63
2023/09/29 11:36:25;;;;;;;3.83;1.30;;;19.60;99.90;;;;;;4825760;29;20244;-64
2023/09/29 11:38:51;;;;;;;5.70;1.30;;;19.50;99.90;;;;;;4826043;29;20210;-66
2023/09/29 11:41:17;;;;;;;5.45;1.10;;;19.30;99.90;;;;;;4826032;29;20221;-65
2023/09/29 11:43:44;;;;;;;5.18;1.20;;;19.10;99.90;;;;;;4825918;29;20216;-64
2023/09/29 11:46:11;;;;;;;3.90;1.17;;;19.00;99.90;;;;;;4825787;29;20183;-64
2023/09/29 11:48:37;;;;;;;6.65;1.23;;;19.20;99.90;;;;;;4825755;29;20538;-65
2023/09/29 11:51:03;;;;;;;3.65;1.10;;;19.00;99.90;;;;;;4825672;29;20183;-64
2023/09/29 11:53:30;;;;;;;3.75;1.23;;;19.00;99.90;;;;;;4825891;29;20183;-64
2023/09/29 11:55:56;;;;;;;4.05;1.10;;;19.00;99.90;;;;;;4825671;29;20287;-65
2023/09/29 11:58:23;;;;;;;4.03;1.15;;;19.00;99.90;;;;;;4825853;29;20321;-64
2023/09/29 12:00:49;;;;;;;2.47;1.20;;;19.00;99.90;;;;;;4825637;29;20198;-64
2023/09/29 12:03:16;;;;;;;4.80;1.40;;;18.90;99.90;;;;;;4825530;29;20568;-65
2023/09/29 12:05:45;;;;;;;3.60;1.30;;;19.10;99.90;;;;;;4825542;29;20242;-64
2023/09/29 12:08:11;;;;;;;4.90;1.83;;;19.20;99.90;;;;;;4825605;29;20186;-64
2023/09/29 12:10:37;;;;;;;5.47;1.60;;;19.20;99.90;;;;;;4825629;29;20183;-64
2023/09/29 12:13:04;;;;;;;3.45;1.73;;;19.30;99.90;;;;;;4825326;29;20183;-64
2023/09/29 12:15:31;;;;;;;4.47;1.77;;;19.30;99.90;;;;;;4825255;29;20201;-65
2023/09/29 12:17:56;;;;;;;4.78;1.83;;;19.30;99.90;;;;;;4825238;29;20187;-64
2023/09/29 12:20:24;;;;;;;4.78;1.83;;;19.30;99.90;;;;;;4825203;29;20190;-65
2023/09/29 12:22:50;;;;;;;3.38;2.25;;;19.40;99.90;;;;;;4825408;29;20196;-65
2023/09/29 12:25:16;;;;;;;2.78;2.17;;;19.40;99.90;;;;;;4825415;29;20194;-64
2023/09/29 12:27:43;;;;;;;5.00;2.30;;;19.40;99.90;;;;;;4825294;29;20191;-65
2023/09/29 12:30:12;;;;;;;4.60;2.22;;;19.70;99.90;;;;;;4825193;29;20240;-64
2023/09/29 12:32:47;;;;;;;3.72;2.28;;;19.70;99.90;;;;;;4825036;29;20207;-64
2023/09/29 12:35:12;;;;;;;6.07;2.30;;;19.60;99.90;;;;;;4825314;29;20255;-64
2023/09/29 12:37:39;;;;;;;4.35;2.03;;;19.40;99.90;;;;;;4825137;29;20694;-64
2023/09/29 12:40:09;;;;;;;7.03;2.60;;;19.40;99.90;;;;;;4824304;29;20664;-64
2023/09/29 12:42:36;;;;;;;4.13;2.42;;;19.20;99.90;;;;;;4825035;29;20180;-65
2023/09/29 12:45:02;;;;;;;5.38;2.65;;;19.10;99.90;;;;;;4824967;29;20241;-64